createdAt,value
2022-09-05T00:01:48.579Z,100245.00
2022-09-05T00:04:25.131Z,100245.00
2022-09-05T00:07:10.697Z,100233.69
2022-09-05T00:10:20.822Z,100236.31
2022-09-05T00:13:07.154Z,100238.09
2022-09-05T00:15:57.299Z,100240.69
2022-09-05T00:24:23.449Z,100241.56
2022-09-05T00:24:28.937Z,100245.78
2022-09-05T00:25:21.357Z,100238.03
2022-09-05T00:28:00.744Z,100235.41
2022-09-05T00:31:53.464Z,100232.81
2022-09-05T00:34:08.073Z,100233.56
2022-09-05T00:36:45.714Z,100230.00
2022-09-05T00:39:25.421Z,100239.38
2022-09-05T00:42:09.690Z,100222.97
2022-09-05T00:44:54.894Z,100229.09
2022-09-05T00:47:34.951Z,100224.88
2022-09-05T00:50:10.885Z,100231.78
2022-09-05T00:52:50.483Z,100236.03
2022-09-05T00:55:46.161Z,100211.78
2022-09-05T00:58:53.716Z,100241.06
2022-09-05T01:01:31.749Z,100221.97
2022-09-05T01:04:25.438Z,100225.38
2022-09-05T01:07:14.823Z,100227.97
2022-09-05T01:09:53.054Z,100209.91
2022-09-05T01:12:42.743Z,100209.97
2022-09-05T01:15:32.949Z,100219.50
2022-09-05T01:18:31.971Z,100222.91
2022-09-05T01:21:45.376Z,100219.50
2022-09-05T01:29:12.835Z,100216.06
2022-09-05T01:30:48.136Z,100216.84
2022-09-05T01:33:28.834Z,100216.03
2022-09-05T01:36:16.390Z,100210.84
2022-09-05T01:40:11.569Z,100208.25
2022-09-05T01:41:56.449Z,100197.84
2022-09-05T01:44:43.475Z,100207.34
2022-09-05T01:47:32.647Z,100205.59
2022-09-05T01:50:14.955Z,100212.38
2022-09-05T01:53:03.361Z,100200.28
2022-09-05T01:56:03.949Z,100209.78
2022-09-05T01:58:49.204Z,100202.97
2022-09-05T02:01:32.600Z,100203.06
2022-09-05T02:04:30.504Z,100193.69
2022-09-05T02:07:20.081Z,100199.94
2022-09-05T02:10:24.680Z,100198.38
2022-09-05T02:13:02.996Z,100195.91
2022-09-05T02:15:52.299Z,100198.63
2022-09-05T02:18:51.959Z,100197.88
2022-09-05T02:21:27.957Z,100200.53
2022-09-05T02:24:08.036Z,100198.88
2022-09-05T02:26:53.279Z,100204.03
2022-09-05T02:29:28.422Z,100202.28
2022-09-05T02:34:47.060Z,100207.41
2022-09-05T02:37:37.137Z,100215.94
2022-09-05T02:45:07.125Z,100221.09
2022-09-05T02:45:10.440Z,100222.00
2022-09-05T02:46:32.918Z,100211.63
2022-09-05T02:49:17.660Z,100217.66
2022-09-05T02:57:29.377Z,100201.44
2022-09-05T02:57:40.619Z,100209.19
2022-09-05T02:58:07.696Z,100204.97
2022-09-05T03:00:51.082Z,100206.72
2022-09-05T03:03:36.269Z,100205.88
2022-09-05T03:06:26.016Z,100212.78
2022-09-05T03:09:19.761Z,100210.22
2022-09-05T03:12:32.106Z,100222.31
2022-09-05T03:15:42.895Z,100214.59
2022-09-05T03:19:00.625Z,100216.31
2022-09-05T03:22:07.822Z,100214.59
2022-09-05T03:25:12.467Z,100214.59
2022-09-05T03:28:24.925Z,100212.09
2022-09-05T03:31:02.551Z,100213.00
2022-09-05T03:33:58.359Z,100219.88
2022-09-05T03:36:59.062Z,100213.91
2022-09-05T03:39:57.365Z,100215.66
2022-09-05T03:42:52.510Z,100213.13
2022-09-05T03:45:49.777Z,100213.13
2022-09-05T03:48:45.098Z,100205.38
2022-09-05T03:57:12.367Z,100207.13
2022-09-05T03:57:19.611Z,100191.66
2022-09-05T03:58:03.446Z,100201.16
2022-09-05T04:01:25.586Z,100199.47
2022-09-05T04:08:08.423Z,100204.63
2022-09-05T04:08:17.880Z,100207.22
2022-09-05T04:09:51.564Z,100201.22
2022-09-05T04:12:31.111Z,100200.34
2022-09-05T04:15:05.291Z,100209.81
2022-09-05T04:17:50.196Z,100212.41
2022-09-05T04:20:25.706Z,100208.13
2022-09-05T04:23:19.700Z,100184.91
2022-09-05T04:26:11.661Z,100196.97
2022-09-05T04:29:04.489Z,100203.84
2022-09-05T04:32:18.425Z,100201.28
2022-09-05T04:35:05.634Z,100195.25
2022-09-05T04:37:48.831Z,100197.81
2022-09-05T04:40:51.325Z,100201.28
2022-09-05T04:43:31.765Z,100199.56
2022-09-05T04:46:10.299Z,100203.91
2022-09-05T04:48:47.725Z,100203.03
2022-09-05T04:52:00.906Z,100192.75
2022-09-05T04:54:42.135Z,100190.16
2022-09-05T05:02:51.968Z,100171.22
2022-09-05T05:06:31.744Z,100178.94
2022-09-05T05:08:56.519Z,100191.84
2022-09-05T05:17:57.232Z,100194.41
2022-09-05T05:18:11.658Z,100184.91
2022-09-05T05:18:16.391Z,100198.69
2022-09-05T05:20:41.458Z,100184.84
2022-09-05T05:23:17.437Z,100204.53
2022-09-05T05:25:55.253Z,100206.97
2022-09-05T05:28:30.567Z,100178.44
2022-09-05T05:31:12.541Z,100200.84
2022-09-05T05:33:45.749Z,100203.47
2022-09-05T05:36:27.433Z,100206.84
2022-09-05T05:39:01.770Z,100198.94
2022-09-05T05:41:42.017Z,100198.84
2022-09-05T05:44:15.182Z,100175.50
2022-09-05T05:46:48.485Z,100183.97
2022-09-05T05:49:48.918Z,100196.69
2022-09-05T05:52:45.408Z,100199.03
2022-09-05T05:55:51.811Z,100198.13
2022-09-05T05:59:00.537Z,100191.69
2022-09-05T06:02:06.000Z,100198.66
2022-09-05T06:05:14.880Z,100190.75
2022-09-05T06:09:32.447Z,100193.75
2022-09-05T06:14:57.751Z,100202.69
2022-09-05T06:14:57.886Z,100194.91
2022-09-05T06:17:53.253Z,100196.41
2022-09-05T06:22:11.351Z,100185.72
2022-09-05T06:24:23.883Z,100192.94
2022-09-05T06:27:18.522Z,100192.72
2022-09-05T06:30:04.274Z,100188.25
2022-09-05T06:32:59.925Z,100193.50
2022-09-05T06:35:35.020Z,100194.97
2022-09-05T06:38:30.813Z,100174.28
2022-09-05T06:41:25.242Z,100200.72
2022-09-05T06:44:25.482Z,100189.13
2022-09-05T06:47:30.228Z,100196.00
2022-09-05T06:50:24.198Z,100185.72
2022-09-05T06:53:35.202Z,100190.44
2022-09-05T06:56:29.612Z,100195.88
2022-09-05T06:59:29.792Z,100177.66
2022-09-05T07:02:08.156Z,100192.72
2022-09-05T07:05:23.347Z,100192.00
2022-09-05T07:07:46.043Z,100189.44
2022-09-05T07:10:37.977Z,100190.41
2022-09-05T07:13:16.799Z,100158.97
2022-09-05T07:15:56.353Z,100186.63
2022-09-05T07:18:32.234Z,100182.09
2022-09-05T07:21:16.841Z,100196.78
2022-09-05T07:24:08.618Z,100183.81
2022-09-05T07:26:54.133Z,100184.56
2022-09-05T07:29:29.196Z,100187.09
2022-09-05T07:32:01.544Z,100192.28
2022-09-05T07:34:32.900Z,100191.03
2022-09-05T07:37:15.474Z,100196.63
2022-09-05T07:39:58.224Z,100181.91
2022-09-05T07:42:38.153Z,100182.78
2022-09-05T07:45:11.461Z,100194.88
2022-09-05T07:47:48.113Z,100170.72
2022-09-05T07:55:40.588Z,100189.50
2022-09-05T07:56:53.304Z,100181.88
2022-09-05T07:57:01.148Z,100189.81
2022-09-05T07:59:03.217Z,100167.94
2022-09-05T08:01:32.941Z,100186.09
2022-09-05T08:04:08.897Z,100179.53
2022-09-05T08:07:47.174Z,100185.69
2022-09-05T08:10:09.024Z,100182.84
2022-09-05T08:12:28.417Z,100188.53
2022-09-05T08:15:10.336Z,100178.75
2022-09-05T08:17:59.484Z,100175.88
2022-09-05T08:20:37.307Z,100172.19
2022-09-05T08:23:10.793Z,100171.78
2022-09-05T08:25:57.544Z,100177.16
2022-09-05T08:28:40.608Z,100170.13
2022-09-05T08:31:14.534Z,100143.44
2022-09-05T08:33:45.870Z,100159.28
2022-09-05T08:36:31.624Z,100172.41
2022-09-05T08:39:04.150Z,100161.69
2022-09-05T08:41:51.021Z,100142.94
2022-09-05T08:46:39.203Z,100167.34
2022-09-05T08:47:43.348Z,100167.41
2022-09-05T08:50:41.052Z,100175.69
2022-09-05T08:53:46.115Z,100168.31
2022-09-05T08:56:21.328Z,100135.69
2022-09-05T08:59:31.572Z,100168.09
2022-09-05T09:02:44.984Z,100153.09
2022-09-05T09:05:14.136Z,100149.44
2022-09-05T09:07:57.631Z,100152.34
2022-09-05T09:10:50.406Z,100165.47
2022-09-05T09:13:37.145Z,100154.38
2022-09-05T09:16:10.805Z,100165.16
2022-09-05T09:19:03.273Z,100152.19
2022-09-05T09:21:49.514Z,100165.91
2022-09-05T09:24:32.059Z,100146.25
2022-09-05T09:27:08.753Z,100155.31
2022-09-05T09:29:42.080Z,100153.75
2022-09-05T09:32:15.880Z,100149.63
2022-09-05T09:34:56.211Z,100153.22
2022-09-05T09:37:59.388Z,100153.97
2022-09-05T09:40:40.545Z,100161.44
2022-09-05T09:43:27.035Z,100151.78
2022-09-05T09:46:15.168Z,100144.59
2022-09-05T09:49:22.560Z,100150.19
2022-09-05T09:52:26.971Z,100141.59
2022-09-05T09:55:28.630Z,100150.78
2022-09-05T09:58:26.968Z,100139.66
2022-09-05T10:01:34.779Z,100138.00
2022-09-05T10:10:38.836Z,100153.00
2022-09-05T10:10:51.118Z,100151.78
2022-09-05T10:11:44.032Z,100137.25
2022-09-05T10:14:47.917Z,100133.56
2022-09-05T10:17:48.607Z,100130.41
2022-09-05T10:20:38.938Z,100131.44
2022-09-05T10:23:44.317Z,100124.09
2022-09-05T10:27:02.998Z,100133.91
2022-09-05T10:29:49.660Z,100133.16
2022-09-05T10:35:02.762Z,100103.75
2022-09-05T10:35:23.526Z,100122.75
2022-09-05T10:38:02.492Z,100113.41
2022-09-05T10:40:51.439Z,100114.81
2022-09-05T10:43:44.114Z,100114.75
2022-09-05T10:46:49.110Z,100110.75
2022-09-05T10:49:22.594Z,100112.97
2022-09-05T10:52:08.415Z,100127.44
2022-09-05T10:55:14.809Z,100113.63
2022-09-05T10:57:58.560Z,100108.38
2022-09-05T11:02:30.419Z,100116.78
2022-09-05T11:03:47.602Z,100120.00
2022-09-05T11:06:24.989Z,100111.44
2022-09-05T11:09:12.225Z,100129.41
2022-09-05T11:11:46.954Z,100125.28
2022-09-05T11:14:41.668Z,100121.06
2022-09-05T11:17:29.079Z,100107.72
2022-09-05T11:20:23.749Z,100108.22
2022-09-05T11:23:12.313Z,100105.84
2022-09-05T11:25:47.472Z,100088.63
2022-09-05T11:28:21.004Z,100104.03
2022-09-05T11:30:55.527Z,100085.69
2022-09-05T11:39:50.834Z,100105.63
2022-09-05T11:40:08.639Z,100087.94
2022-09-05T11:40:50.606Z,100095.50
2022-09-05T11:44:11.833Z,100095.59
2022-09-05T11:47:31.782Z,100099.25
2022-09-05T11:50:40.243Z,100090.88
2022-09-05T11:53:41.976Z,100083.06
2022-09-05T11:56:52.993Z,100097.56
2022-09-05T12:00:31.990Z,100090.25
2022-09-05T12:03:59.480Z,100082.88
2022-09-05T12:06:47.895Z,100078.88
2022-09-05T12:09:34.254Z,100081.13
2022-09-05T12:12:38.592Z,100069.88
2022-09-05T12:15:25.699Z,100050.25
2022-09-05T12:18:21.726Z,100069.44
2022-09-05T12:21:03.933Z,100072.50
2022-09-05T12:24:13.516Z,100074.25
2022-09-05T12:27:41.009Z,100064.59
2022-09-05T12:29:48.599Z,100047.59
2022-09-05T12:33:58.142Z,100073.38
2022-09-05T12:36:10.227Z,100062.94
2022-09-05T12:40:56.096Z,100066.47
2022-09-05T12:42:14.859Z,100064.84
2022-09-05T12:45:08.767Z,100066.59
2022-09-05T12:47:57.672Z,100054.56
2022-09-05T13:01:15.452Z,100063.69
2022-09-05T13:03:05.550Z,100062.63
2022-09-05T13:03:40.826Z,100054.41
2022-09-05T13:06:25.110Z,100052.59
2022-09-05T13:09:01.193Z,100054.31
2022-09-05T13:14:54.321Z,100044.09
2022-09-05T13:14:54.747Z,100051.13
2022-09-05T13:17:38.410Z,100054.06
2022-09-05T13:20:20.076Z,100048.38
2022-09-05T13:22:51.667Z,100040.41
2022-09-05T13:25:31.698Z,100042.84
2022-09-05T13:28:05.922Z,100041.44
2022-09-05T13:37:55.595Z,100027.13
2022-09-05T13:38:17.484Z,99997.66
2022-09-05T13:39:15.995Z,100035.69
2022-09-05T13:41:48.835Z,100042.72
2022-09-05T13:44:27.228Z,100037.56
2022-09-05T13:47:02.524Z,100049.13
2022-09-05T13:49:45.753Z,100035.63
2022-09-05T13:52:34.179Z,100060.03
2022-09-05T13:55:21.612Z,100052.56
2022-09-05T13:57:56.606Z,100053.78
2022-09-05T14:01:07.924Z,100050.53
2022-09-05T14:05:05.200Z,100064.44
2022-09-05T14:07:45.038Z,100060.25
2022-09-05T14:10:43.210Z,100052.63
2022-09-05T14:13:21.944Z,100053.56
2022-09-05T14:15:59.010Z,100044.81
2022-09-05T14:18:33.933Z,100053.34
2022-09-05T14:21:16.659Z,100052.44
2022-09-05T14:23:56.297Z,100036.91
2022-09-05T14:26:30.411Z,100042.88
2022-09-05T14:37:40.386Z,100034.13
2022-09-05T14:37:42.573Z,100045.09
2022-09-05T14:38:09.384Z,100040.75
2022-09-05T14:41:16.246Z,100039.81
2022-09-05T14:44:24.805Z,100002.13
2022-09-05T14:47:34.959Z,100032.25
2022-09-05T14:50:35.097Z,100032.31
2022-09-05T14:56:24.465Z,100042.81
2022-09-05T15:02:52.383Z,100032.56
2022-09-05T15:02:54.061Z,100017.06
2022-09-05T15:04:49.067Z,100035.19
2022-09-05T15:07:22.879Z,100030.03
2022-09-05T15:12:18.641Z,100030.03
2022-09-05T15:13:05.260Z,100037.03
2022-09-05T15:15:40.194Z,100025.88
2022-09-05T15:18:15.666Z,100026.72
2022-09-05T15:20:47.306Z,100030.16
2022-09-05T15:23:32.910Z,100023.22
2022-09-05T15:26:06.505Z,100035.25
2022-09-05T15:28:43.601Z,100021.44
2022-09-05T15:31:23.966Z,100021.41
2022-09-05T15:33:57.723Z,100012.00
2022-09-05T15:36:34.079Z,100015.34
2022-09-05T15:39:22.918Z,100021.38
2022-09-05T15:41:53.161Z,100016.22
2022-09-05T15:44:30.586Z,100028.28
2022-09-05T15:47:04.625Z,100024.88
2022-09-05T15:49:43.938Z,100024.03
2022-09-05T15:52:35.742Z,100022.34
2022-09-05T15:55:18.466Z,100015.53
2022-09-05T15:57:50.820Z,100026.81
2022-09-05T16:00:51.899Z,100019.94
2022-09-05T16:04:42.188Z,100012.28
2022-09-05T16:10:42.749Z,100007.25
2022-09-05T16:10:50.572Z,100023.53
2022-09-05T16:12:35.321Z,100029.69
2022-09-05T16:17:31.323Z,100024.53
2022-09-05T16:23:15.488Z,100010.81
2022-09-05T16:23:28.976Z,100028.00
2022-09-05T16:23:52.769Z,100016.84
2022-09-05T16:26:27.413Z,100031.50
2022-09-05T16:29:01.457Z,100025.50
2022-09-05T16:31:38.340Z,100032.34
2022-09-05T16:34:16.574Z,100037.50
2022-09-05T16:37:08.035Z,100039.22
2022-09-05T16:39:43.104Z,100035.75
2022-09-05T16:42:18.597Z,100034.88
2022-09-05T16:44:59.450Z,100046.00
2022-09-05T16:47:36.645Z,100044.31
2022-09-05T16:50:16.886Z,100050.34
2022-09-05T16:53:20.939Z,100046.88
2022-09-05T16:55:59.344Z,100047.72
2022-09-05T16:58:32.389Z,100047.72
2022-09-05T17:01:20.840Z,100039.19
2022-09-05T17:03:56.264Z,100048.66
2022-09-05T17:06:43.686Z,100045.22
2022-09-05T17:09:29.127Z,100047.81
2022-09-05T17:12:03.037Z,100045.25
2022-09-05T17:14:37.516Z,100036.66
2022-09-05T17:17:54.594Z,100053.88
2022-09-05T17:20:14.074Z,100041.84
2022-09-05T17:26:16.171Z,100043.50
2022-09-05T17:29:37.961Z,100038.38
2022-09-05T17:29:39.922Z,100047.81
2022-09-05T17:32:09.295Z,100024.66
2022-09-05T17:35:17.469Z,100065.16
2022-09-05T17:38:25.010Z,100043.56
2022-09-05T17:41:23.444Z,100059.09
2022-09-05T17:44:06.107Z,100060.84
2022-09-05T17:46:41.839Z,100045.38
2022-09-05T17:49:18.438Z,100020.28
2022-09-05T17:52:20.446Z,100053.94
2022-09-05T17:54:51.960Z,100060.00
2022-09-05T17:57:44.851Z,100069.56
2022-09-05T18:00:49.363Z,100066.13
2022-09-05T18:04:17.164Z,100069.59
2022-09-05T18:07:00.355Z,100081.69
2022-09-05T18:10:14.527Z,100075.69
2022-09-05T18:13:12.658Z,100070.53
2022-09-05T18:16:06.566Z,100077.38
2022-09-05T18:19:27.883Z,100079.97
2022-09-05T18:21:47.917Z,100085.16
2022-09-05T18:24:33.337Z,100093.78
2022-09-05T18:27:43.831Z,100092.03
2022-09-05T18:30:07.169Z,100074.84
2022-09-05T18:32:51.928Z,100080.84
2022-09-05T18:35:37.806Z,100083.44
2022-09-05T18:38:50.206Z,100084.28
2022-09-05T18:41:20.711Z,100088.59
2022-09-05T18:44:13.153Z,100084.25
2022-09-05T18:46:52.499Z,100083.38
2022-09-05T18:50:24.660Z,100085.13
2022-09-05T18:52:26.701Z,100095.44
2022-09-05T18:56:10.082Z,100080.78
2022-09-05T18:57:59.237Z,100084.19
2022-09-05T19:00:44.576Z,100083.34
2022-09-05T19:03:20.010Z,100046.41
2022-09-05T19:06:36.809Z,100068.78
2022-09-05T19:08:58.556Z,100060.19
2022-09-05T19:11:35.050Z,100076.50
2022-09-05T19:14:26.345Z,100052.44
2022-09-05T19:17:10.547Z,100075.63
2022-09-05T19:20:28.730Z,100079.06
2022-09-05T19:23:10.569Z,100063.56
2022-09-05T19:25:44.347Z,100070.50
2022-09-05T19:35:57.144Z,100067.91
2022-09-05T19:36:56.793Z,100061.03
2022-09-05T19:37:09.790Z,100054.13
2022-09-05T19:45:01.995Z,100074.81
2022-09-05T19:47:27.403Z,100055.03
2022-09-05T19:47:36.821Z,100049.91
2022-09-05T19:48:35.025Z,100063.69
2022-09-05T19:51:16.209Z,100066.25
2022-09-05T19:53:55.152Z,100051.63
2022-09-05T19:59:21.908Z,100051.63
2022-09-05T20:01:59.107Z,100059.38
2022-09-05T20:04:35.236Z,100041.31
2022-09-05T20:07:17.508Z,100052.47
2022-09-05T20:09:49.106Z,100055.09
2022-09-05T20:12:24.547Z,100043.88
2022-09-05T20:14:54.031Z,100059.38
2022-09-05T20:17:28.085Z,100061.97
2022-09-05T20:20:13.287Z,100057.63
2022-09-05T20:22:48.765Z,100052.50
2022-09-05T20:25:36.087Z,100052.47
2022-09-05T20:28:09.806Z,100060.22
2022-09-05T20:30:45.103Z,100047.31
2022-09-05T20:33:28.056Z,100051.63
2022-09-05T20:40:03.966Z,100056.78
2022-09-05T20:43:22.839Z,100043.03
2022-09-05T20:43:31.289Z,100061.94
2022-09-05T20:44:41.415Z,100028.41
2022-09-05T20:54:05.213Z,100044.75
2022-09-05T20:54:18.863Z,100055.91
2022-09-05T20:54:25.001Z,100058.50
2022-09-05T20:56:06.920Z,100052.44
2022-09-05T20:58:38.854Z,100057.59
2022-09-05T21:01:21.238Z,100061.03
2022-09-05T21:04:00.140Z,100052.44
2022-09-05T21:06:37.381Z,100018.06
2022-09-05T21:09:22.478Z,100043.88
2022-09-05T21:11:56.114Z,100049.91
2022-09-05T21:14:28.526Z,100050.75
2022-09-05T21:17:15.121Z,100051.59
2022-09-05T21:19:58.620Z,100038.72
2022-09-05T21:22:41.416Z,100040.44
2022-09-05T21:25:43.844Z,100041.28
2022-09-05T21:28:36.519Z,100036.13
2022-09-05T21:31:16.208Z,100041.28
2022-09-05T21:33:46.857Z,100036.13
2022-09-05T21:36:17.314Z,100036.13
2022-09-05T21:38:46.680Z,100025.84
2022-09-05T21:41:18.491Z,100031.00
2022-09-05T21:47:44.822Z,100030.97
2022-09-05T21:47:48.685Z,100031.84
2022-09-05T21:49:35.521Z,100035.28
2022-09-05T21:52:07.828Z,100031.84
2022-09-05T21:59:13.433Z,100019.81
2022-09-05T21:59:24.360Z,100017.22
2022-09-05T22:00:26.782Z,100018.09
2022-09-05T22:02:56.540Z,100033.56
2022-09-05T22:05:25.911Z,100021.50
2022-09-05T22:07:55.490Z,100020.66
2022-09-05T22:10:33.863Z,100011.19
2022-09-05T22:13:29.694Z,100026.69
2022-09-05T22:16:04.019Z,100006.94
2022-09-05T22:18:34.489Z,100023.25
2022-09-05T22:21:31.567Z,100016.38
2022-09-05T22:27:11.425Z,100018.09
2022-09-05T22:29:42.671Z,100018.09
2022-09-05T22:32:16.590Z,99972.53
2022-09-05T22:37:17.369Z,100018.09
2022-09-05T22:39:46.821Z,100016.34
2022-09-05T22:42:16.609Z,100012.94
2022-09-05T22:44:53.881Z,100013.78
2022-09-05T22:47:23.064Z,100012.06
2022-09-05T22:49:52.190Z,100004.34
2022-09-05T22:52:21.300Z,100012.06
2022-09-05T22:54:57.151Z,100009.47
2022-09-05T22:57:26.368Z,100002.63
2022-09-05T22:59:57.578Z,100008.66
2022-09-05T23:05:08.772Z,99994.88
2022-09-05T23:07:38.385Z,100011.22
2022-09-05T23:10:08.357Z,100000.88
2022-09-05T23:12:58.826Z,100013.78
2022-09-05T23:15:35.068Z,100012.94
2022-09-05T23:18:11.676Z,100006.06
2022-09-05T23:20:45.888Z,100013.78
2022-09-05T23:23:15.078Z,100013.78
2022-09-05T23:25:44.226Z,100006.06
2022-09-05T23:28:18.949Z,100019.81
2022-09-05T23:30:50.462Z,100009.50
2022-09-05T23:33:19.809Z,100024.97
2022-09-05T23:36:00.218Z,100007.78
2022-09-05T23:38:29.780Z,100017.22
2022-09-05T23:41:02.634Z,100011.22
2022-09-05T23:43:34.368Z,100020.69
2022-09-05T23:46:06.224Z,100020.69
2022-09-05T23:48:35.517Z,100014.66
2022-09-05T23:51:09.438Z,100010.34
2022-09-05T23:53:40.236Z,100013.81
2022-09-05T23:56:12.168Z,100013.81
2022-09-05T23:58:46.893Z,100006.06
